»·PEaware :: N72G KBLH-KPRC

N72G :: KBLH-KPRC

FLIGHT INFORMATION

Flight Status: Arrived
Operator: Privately registered:
United States
More flights under this callsign
Pilot: Joe K. (15257)
Aircraft: ECLIPSE 500
(EA50)
More flights by this aircraft type
Origin: KBLH Blythe
United States
Destination: KPRC Love
United States
More flights between these airports :: More routes between these airports
Route: PKE J78 DRK
File this flight plan on PilotEdge
Remarks:
Altitude:
(Current/Filed)
23,000ft
Speed:
(Current/Filed)
310kts
Departed: 08-Oct-17 10:56 AM
Arrived: 08-Oct-17 11:40 AM
Distance/Time
Traveled:
130nm/0:44
Distance/Time
To Go:
Arrived

Flight Plot

Page will automatically refresh every two minutes.

Flight plan parsing failed; only flown route is shown


Map Options




Map Legend


Flown Route
Filed Route
Departure Airport
Arrival Airport
Navaid (VOR, NDB)
Fix

Horizontal Profiles

Position Reports

Time Latitude Longitude Heading Altitude Ground
Speed
08-Oct-17 10:52 33.614462 -114.712295 269 401ft 0kts
08-Oct-17 10:52 33.614462 -114.712295 269 401ft 0kts
08-Oct-17 10:53 33.614462 -114.712295 269 401ft 0kts
08-Oct-17 10:54 33.614462 -114.712295 269 401ft 0kts
08-Oct-17 10:56 33.614462 -114.712313 269 401ft 1kts
08-Oct-17 10:56 33.614786 -114.714992 311 401ft 17kts
08-Oct-17 10:57 33.619810 -114.716735 356 401ft 22kts
08-Oct-17 10:58 33.627523 -114.716812 355 401ft 29kts
08-Oct-17 10:59 33.630265 -114.716690 167 401ft 0kts
08-Oct-17 11:00 33.626859 -114.716653 176 401ft 76kts
08-Oct-17 11:01 33.589137 -114.718331 179 1752ft 174kts
08-Oct-17 11:02 33.546877 -114.737530 262 4337ft 199kts
08-Oct-17 11:03 33.568449 -114.800045 289 6782ft 210kts
08-Oct-17 11:04 33.612192 -114.826964 21 8823ft 227kts
08-Oct-17 11:05 33.670758 -114.797106 21 11314ft 229kts
08-Oct-17 11:06 33.728394 -114.779299 7 13773ft 215kts
08-Oct-17 11:07 33.787160 -114.762686 10 15707ft 223kts
08-Oct-17 11:08 33.847300 -114.741482 10 17474ft 229kts
08-Oct-17 11:09 33.908702 -114.719657 10 19078ft 234kts
08-Oct-17 11:10 33.971332 -114.697299 10 20535ft 238kts
08-Oct-17 11:11 34.035480 -114.680832 353 22045ft 236kts
08-Oct-17 11:12 34.100417 -114.665939 45 22752ft 288kts
08-Oct-17 11:13 34.132385 -114.570940 65 22757ft 334kts
08-Oct-17 11:14 34.164022 -114.461839 66 22756ft 354kts
08-Oct-17 11:15 34.196200 -114.347932 67 22756ft 363kts
08-Oct-17 11:16 34.227823 -114.235001 67 22751ft 367kts
08-Oct-17 11:17 34.260423 -114.118028 67 22726ft 370kts
08-Oct-17 11:18 34.292952 -114.000800 67 22725ft 370kts
08-Oct-17 11:19 34.325454 -113.883182 67 22725ft 370kts
08-Oct-17 11:20 34.357633 -113.766245 67 22726ft 371kts
08-Oct-17 11:21 34.389829 -113.648747 67 22726ft 371kts
08-Oct-17 11:22 34.421890 -113.531186 67 22848ft 364kts
08-Oct-17 11:23 34.453689 -113.414249 67 22890ft 374kts
08-Oct-17 11:24 34.485414 -113.297051 68 22571ft 385kts
08-Oct-17 11:25 34.517779 -113.176884 68 20855ft 375kts
08-Oct-17 11:26 34.549490 -113.058630 68 18667ft 365kts
08-Oct-17 11:27 34.580025 -112.944235 68 16646ft 354kts
08-Oct-17 11:28 34.609801 -112.832237 68 14847ft 345kts
08-Oct-17 11:29 34.638528 -112.723759 68 13101ft 334kts
08-Oct-17 11:30 34.664355 -112.615044 89 12990ft 339kts
08-Oct-17 11:31 34.650360 -112.512664 100 11722ft 290kts
08-Oct-17 11:32 34.639161 -112.417094 100 10144ft 286kts
08-Oct-17 11:33 34.639463 -112.326385 53 9997ft 280kts
08-Oct-17 11:34 34.685742 -112.260893 50 10007ft 257kts
08-Oct-17 11:35 34.731884 -112.194232 50 10005ft 259kts
08-Oct-17 11:36 34.778901 -112.131434 31 9995ft 253kts
08-Oct-17 11:37 34.818011 -112.170987 260 9421ft 217kts
08-Oct-17 11:38 34.805206 -112.241936 250 9005ft 215kts
08-Oct-17 11:39 34.769350 -112.297061 221 7930ft 202kts
08-Oct-17 11:40 34.733052 -112.335936 221 6953ft 150kts
08-Oct-17 11:41 34.705919 -112.364855 221 6199ft 105kts
08-Oct-17 11:42 34.685416 -112.386648 221 5694ft 107kts
08-Oct-17 11:43 34.663115 -112.410337 220 5101ft 104kts
08-Oct-17 11:44 34.651096 -112.422309 135 5044ft 11kts
08-Oct-17 11:45 34.650777 -112.420130 41 5044ft 0kts
08-Oct-17 11:46 34.650777 -112.420130 41 5044ft 0kts
08-Oct-17 11:47 34.650777 -112.420130 41 5044ft 0kts
08-Oct-17 11:48 34.650777 -112.420130 41 5044ft 0kts
08-Oct-17 11:49 34.650777 -112.420130 41 5044ft 0kts
08-Oct-17 11:50 34.650777 -112.420130 41 5044ft 0kts
08-Oct-17 11:51 34.650777 -112.420130 41 5044ft 0kts
08-Oct-17 11:52 34.650777 -112.420130 41 5044ft 0kts
08-Oct-17 11:53 34.650777 -112.420130 41 5044ft 0kts
08-Oct-17 11:54 34.650777 -112.420130 41 5044ft 0kts
08-Oct-17 11:55 34.650777 -112.420130 41 5044ft 0kts

Navigation Log

Ident Type
Flight plan parsing failed, navigation log unavailable